Time;durP1;ratioP1;P1;durP2;ratioP2;P2;SDS_P1;SDS_P2;PMS_P1;PMS_P2;Temp;Humidity;BMP_temperature;BMP_pressure;BME280_temperature;BME280_humidity;BME280_pressure;Samples;Min_cycle;Max_cycle;Signal;HPM_P1;HPM_P2
2023/07/08 00:07:00;;;;;;;3.70;2.30;;;20.90;1.00;;;;;;19746596;29;20460;-78
2023/07/08 00:17:21;;;;;;;3.33;2.20;;;20.80;1.00;;;;;;19747640;29;20570;-77
2023/07/08 00:27:42;;;;;;;4.25;2.70;;;20.70;1.00;;;;;;19741114;29;20047;-78
2023/07/08 00:38:27;;;;;;;4.10;2.53;;;20.60;1.00;;;;;;19745762;29;20057;-78
2023/07/08 00:48:52;;;;;;;4.60;2.67;;;20.50;1.00;;;;;;19743622;29;20043;-78
2023/07/08 00:59:38;;;;;;;5.30;2.50;;;20.30;1.00;;;;;;19750429;29;20043;-77
2023/07/08 01:10:12;;;;;;;4.55;2.97;;;20.20;1.00;;;;;;19739432;29;20138;-78
2023/07/08 01:20:33;;;;;;;3.88;2.88;;;20.00;1.00;;;;;;19736345;29;20048;-78
2023/07/08 01:30:55;;;;;;;4.72;2.53;;;19.80;1.00;;;;;;19735647;29;20046;-78
2023/07/08 01:41:17;;;;;;;4.25;2.97;;;19.70;1.00;;;;;;19734196;29;20078;-78
2023/07/08 01:51:38;;;;;;;5.43;3.40;;;19.70;1.00;;;;;;19742755;29;20504;-77
2023/07/08 02:02:00;;;;;;;3.53;2.70;;;19.50;1.00;;;;;;19744465;29;20144;-78
2023/07/08 02:12:21;;;;;;;5.60;2.95;;;19.40;1.00;;;;;;19736008;29;20110;-77
2023/07/08 02:22:43;;;;;;;5.35;3.00;;;19.30;1.00;;;;;;19754396;29;20043;-80
2023/07/08 02:33:04;;;;;;;4.60;2.95;;;19.10;1.00;;;;;;19714421;29;20075;-79
2023/07/08 02:43:26;;;;;;;4.07;2.80;;;19.00;1.00;;;;;;19737735;29;20894;-80
2023/07/08 02:53:49;;;;;;;6.70;3.15;;;18.80;1.00;;;;;;19723706;29;20207;-79
2023/07/08 03:04:14;;;;;;;5.65;3.10;;;18.70;1.00;;;;;;19720527;29;20268;-79
2023/07/08 03:14:36;;;;;;;12.43;2.90;;;18.70;1.00;;;;;;19721396;29;20074;-79
2023/07/08 03:24:57;;;;;;;5.20;3.30;;;18.50;1.00;;;;;;19716315;29;20173;-79
2023/07/08 03:35:18;;;;;;;5.00;3.30;;;18.50;1.00;;;;;;19716069;29;20035;-79
2023/07/08 03:45:40;;;;;;;5.38;3.63;;;18.50;1.00;;;;;;19706703;29;20579;-79
2023/07/08 03:56:01;;;;;;;6.03;3.40;;;18.50;1.00;;;;;;19721229;29;20187;-80
2023/07/08 04:06:23;;;;;;;3.88;2.75;;;18.30;1.00;;;;;;19721682;29;20068;-80
2023/07/08 04:16:52;;;;;;;4.47;3.00;;;18.30;1.00;;;;;;19730638;29;20086;-80
2023/07/08 04:27:17;;;;;;;7.15;3.13;;;18.30;1.00;;;;;;19718694;30;20942;-80
2023/07/08 04:37:38;;;;;;;5.90;3.00;;;18.30;1.00;;;;;;19724255;29;20071;-79
2023/07/08 04:48:00;;;;;;;4.07;2.80;;;18.30;1.00;;;;;;19731788;29;20093;-79
2023/07/08 04:58:23;;;;;;;5.47;3.00;;;18.40;1.00;;;;;;19748679;29;20408;-78
2023/07/08 05:08:44;;;;;;;4.72;3.53;;;18.60;1.00;;;;;;19748375;29;20123;-79
2023/07/08 05:19:05;;;;;;;5.88;3.00;;;18.80;1.00;;;;;;19748263;29;20086;-78
2023/07/08 05:29:27;;;;;;;4.68;3.17;;;19.00;1.00;;;;;;19739067;29;20048;-79
2023/07/08 05:39:49;;;;;;;3.78;2.53;;;19.30;1.00;;;;;;19751715;29;20085;-78
2023/07/08 05:50:10;;;;;;;5.32;3.17;;;19.50;1.00;;;;;;19725341;29;20551;-81
2023/07/08 06:00:31;;;;;;;6.15;3.03;;;19.90;1.00;;;;;;19727370;29;20055;-80
2023/07/08 06:10:53;;;;;;;4.13;2.83;;;20.20;1.00;;;;;;19714929;29;20659;-80
2023/07/08 06:21:14;;;;;;;5.85;2.88;;;20.40;1.00;;;;;;19693523;29;20070;-81
2023/07/08 06:31:35;;;;;;;3.67;2.70;;;20.80;1.00;;;;;;19716599;29;20063;-81
2023/07/08 06:41:59;;;;;;;6.22;3.38;;;21.10;1.00;;;;;;19739314;29;20089;-79
2023/07/08 06:52:20;;;;;;;6.38;2.72;;;21.30;1.00;;;;;;19721094;29;20340;-81
2023/07/08 07:02:21;;;;;;;6.53;2.53;;;21.60;1.00;;;;;;19712166;29;20378;-81
2023/07/08 07:12:24;;;;;;;3.75;2.67;;;21.90;1.00;;;;;;19753061;29;20058;-81
2023/07/08 07:22:45;;;;;;;4.45;2.75;;;22.40;1.00;;;;;;19694000;29;20063;-81
2023/07/08 07:33:06;;;;;;;5.75;2.80;;;22.60;1.00;;;;;;19782392;29;20239;-83
2023/07/08 07:43:28;;;;;;;5.13;2.60;;;22.70;1.00;;;;;;19784270;29;20055;-83
2023/07/08 07:53:29;;;;;;;4.78;3.00;;;23.00;1.00;;;;;;20282397;24;20182;-82
2023/07/08 08:03:30;;;;;;;5.15;3.08;;;23.40;1.00;;;;;;19766893;24;20059;-86
2023/07/08 08:13:31;;;;;;;4.60;3.17;;;23.80;1.00;;;;;;19744592;29;20043;-83
2023/07/08 08:23:32;;;;;;;5.15;3.28;;;23.90;1.00;;;;;;19762736;29;20544;-82
2023/07/08 08:33:35;;;;;;;5.22;3.10;;;24.20;1.00;;;;;;19736437;29;20496;-83
2023/07/08 08:43:39;;;;;;;5.97;3.58;;;24.40;1.00;;;;;;19716556;29;20064;-83
2023/07/08 08:53:40;;;;;;;5.72;3.70;;;24.90;1.00;;;;;;19748920;29;20408;-84
2023/07/08 09:03:51;;;;;;;4.93;3.50;;;25.40;1.00;;;;;;19724103;29;20519;-82
2023/07/08 09:13:53;;;;;;;7.72;3.72;;;25.70;1.00;;;;;;19750477;29;20130;-82
2023/07/08 09:24:00;;;;;;;5.80;3.40;;;26.20;1.00;;;;;;19747150;29;20058;-83
2023/07/08 09:34:40;;;;;;;5.43;3.42;;;26.50;1.00;;;;;;19749209;29;20047;-83
2023/07/08 09:44:43;;;;;;;6.82;3.75;;;26.80;1.00;;;;;;19746265;29;21025;-83
2023/07/08 09:54:46;;;;;;;7.05;3.60;;;27.10;1.00;;;;;;19720658;29;20062;-82
2023/07/08 10:04:53;;;;;;;5.38;3.63;;;27.50;1.00;;;;;;19748891;29;20064;-84
2023/07/08 10:15:00;;;;;;;7.37;4.17;;;28.00;1.00;;;;;;19750316;29;20048;-82
2023/07/08 10:25:27;;;;;;;7.25;5.05;;;28.30;1.00;;;;;;19742657;29;20051;-81
2023/07/08 10:35:33;;;;;;;6.97;4.70;;;28.40;1.00;;;;;;19762606;29;20323;-81
2023/07/08 10:45:56;;;;;;;6.60;4.40;;;29.00;1.00;;;;;;19751861;29;20058;-81
2023/07/08 10:56:13;;;;;;;5.25;4.07;;;29.50;1.00;;;;;;19759218;29;20043;-81
2023/07/08 11:06:19;;;;;;;6.30;4.60;;;29.60;1.00;;;;;;19746513;29;20052;-81
2023/07/08 11:16:43;;;;;;;5.75;4.15;;;29.60;1.00;;;;;;19743309;29;20039;-81
2023/07/08 11:26:57;;;;;;;6.00;4.45;;;30.30;1.00;;;;;;19740330;29;20679;-81
2023/07/08 11:36:58;;;;;;;7.53;4.97;;;30.40;1.00;;;;;;19752618;29;20044;-84
2023/07/08 11:46:59;;;;;;;6.80;5.07;;;30.60;1.00;;;;;;19750605;29;20043;-83
2023/07/08 11:57:05;;;;;;;6.55;4.53;;;30.70;1.00;;;;;;19752685;29;20047;-86
2023/07/08 12:07:16;;;;;;;6.72;4.82;;;30.90;1.00;;;;;;19752289;29;20221;-82
2023/07/08 12:17:17;;;;;;;7.32;4.68;;;32.00;1.00;;;;;;19752036;29;20069;-84
2023/07/08 12:27:18;;;;;;;7.60;4.10;;;32.40;1.00;;;;;;19745667;29;20043;-83
2023/07/08 12:37:20;;;;;;;7.85;4.43;;;32.60;1.00;;;;;;19725995;29;20078;-85
2023/07/08 12:47:21;;;;;;;6.93;4.00;;;32.60;1.00;;;;;;19717245;29;20089;-81
2023/07/08 12:57:23;;;;;;;7.10;4.53;;;33.00;1.00;;;;;;19699371;29;20059;-82
2023/07/08 13:07:37;;;;;;;8.27;4.60;;;33.30;1.00;;;;;;19752132;29;20626;-82
2023/07/08 13:17:40;;;;;;;9.82;4.80;;;33.40;1.00;;;;;;19745345;29;20062;-82
2023/07/08 13:27:42;;;;;;;7.80;4.55;;;33.60;1.00;;;;;;19750895;29;20043;-81
2023/07/08 13:37:48;;;;;;;8.90;5.13;;;33.60;1.00;;;;;;19747436;29;20054;-81
2023/07/08 13:48:26;;;;;;;7.10;5.00;;;33.70;1.00;;;;;;19736033;29;20047;-81
2023/07/08 13:58:30;;;;;;;7.55;4.60;;;33.90;1.00;;;;;;19710133;29;20060;-83
2023/07/08 14:08:30;;;;;;;6.57;4.43;;;33.60;1.00;;;;;;19745785;29;20048;-82
2023/07/08 14:18:32;;;;;;;7.63;4.60;;;33.60;1.00;;;;;;19731257;29;20047;-82
2023/07/08 14:28:33;;;;;;;8.20;4.85;;;33.70;1.00;;;;;;19731651;29;20055;-83
2023/07/08 14:38:34;;;;;;;6.63;4.65;;;33.60;1.00;;;;;;19726851;29;20059;-84
2023/07/08 14:48:35;;;;;;;7.15;5.00;;;33.60;1.00;;;;;;19728075;29;20054;-84
2023/07/08 14:58:40;;;;;;;7.85;5.10;;;33.10;1.00;;;;;;19739231;29;20405;-83
2023/07/08 15:08:41;;;;;;;8.25;5.03;;;32.80;1.00;;;;;;19721762;29;20059;-87
2023/07/08 15:18:43;;;;;;;8.85;5.63;;;33.00;1.00;;;;;;19720740;29;20043;-83
2023/07/08 15:28:51;;;;;;;6.95;5.10;;;33.20;1.00;;;;;;19739324;29;20055;-83
2023/07/08 15:38:52;;;;;;;8.20;5.18;;;33.10;1.00;;;;;;19739683;29;20050;-84
2023/07/08 15:48:53;;;;;;;7.07;5.00;;;33.00;1.00;;;;;;19737106;29;20054;-83
2023/07/08 15:58:54;;;;;;;7.45;5.15;;;32.70;1.00;;;;;;19736500;29;20524;-84
2023/07/08 16:08:55;;;;;;;10.55;5.78;;;32.30;1.00;;;;;;19736281;29;20044;-83
2023/07/08 16:18:56;;;;;;;8.48;4.90;;;32.10;1.00;;;;;;19737422;29;20059;-81
2023/07/08 16:28:59;;;;;;;6.30;4.97;;;32.10;1.00;;;;;;19726059;29;20403;-81
2023/07/08 16:38:59;;;;;;;7.30;4.60;;;31.90;1.00;;;;;;19740726;29;20587;-81
2023/07/08 16:49:01;;;;;;;9.63;6.28;;;31.50;1.00;;;;;;19728816;29;20055;-81
2023/07/08 16:59:02;;;;;;;7.60;5.07;;;31.50;1.00;;;;;;19725269;29;20066;-81
2023/07/08 17:09:04;;;;;;;7.28;4.78;;;31.60;1.00;;;;;;19732584;29;20054;-81
2023/07/08 17:19:05;;;;;;;8.10;5.00;;;31.40;1.00;;;;;;19739303;29;20071;-82
2023/07/08 17:29:06;;;;;;;6.40;4.57;;;31.30;1.00;;;;;;19733628;29;20050;-83
2023/07/08 17:39:09;;;;;;;6.82;4.60;;;31.40;1.00;;;;;;19725492;29;20056;-82
2023/07/08 17:49:14;;;;;;;8.57;5.53;;;31.30;1.00;;;;;;19727488;29;20047;-83
2023/07/08 17:59:19;;;;;;;7.80;5.37;;;30.90;1.00;;;;;;19735200;29;20055;-83
2023/07/08 18:09:20;;;;;;;7.57;5.22;;;30.30;1.00;;;;;;19744249;29;20531;-81
2023/07/08 18:19:21;;;;;;;6.85;5.32;;;29.90;1.00;;;;;;19731495;29;20123;-84
2023/07/08 18:29:23;;;;;;;8.02;5.60;;;29.70;1.00;;;;;;19741962;29;20051;-84
2023/07/08 18:39:23;;;;;;;6.70;4.93;;;29.70;1.00;;;;;;19745439;29;20047;-83
2023/07/08 18:49:25;;;;;;;9.52;5.30;;;29.40;1.00;;;;;;19746123;29;20050;-82
2023/07/08 18:59:26;;;;;;;7.93;5.47;;;29.20;1.00;;;;;;19740344;29;20620;-81
2023/07/08 19:09:28;;;;;;;7.75;5.22;;;29.00;1.00;;;;;;19725148;29;20541;-81
2023/07/08 19:19:29;;;;;;;8.65;5.13;;;28.70;1.00;;;;;;19732130;29;20051;-83
2023/07/08 19:29:30;;;;;;;9.35;5.88;;;28.30;1.00;;;;;;19739601;29;20066;-83
2023/07/08 19:39:31;;;;;;;6.68;4.47;;;28.00;1.00;;;;;;19738179;29;20501;-81
2023/07/08 19:49:32;;;;;;;6.88;3.90;;;27.90;1.00;;;;;;19736572;29;20051;-84
2023/07/08 19:59:33;;;;;;;6.53;4.15;;;27.90;1.00;;;;;;19739879;29;20055;-84
2023/07/08 20:09:34;;;;;;;5.88;3.95;;;27.70;1.00;;;;;;19752094;29;20062;-84
2023/07/08 20:19:35;;;;;;;7.95;3.80;;;27.30;1.00;;;;;;19752111;29;20397;-83
2023/07/08 20:29:36;;;;;;;6.82;4.20;;;26.90;1.00;;;;;;19734798;29;20703;-84
2023/07/08 20:39:37;;;;;;;6.10;4.28;;;26.50;1.00;;;;;;19741425;29;20054;-82
2023/07/08 20:49:38;;;;;;;6.63;4.10;;;26.20;1.00;;;;;;19742774;29;20051;-84
2023/07/08 20:59:39;;;;;;;9.02;4.63;;;25.80;1.00;;;;;;19739028;29;20066;-83
2023/07/08 21:09:40;;;;;;;5.60;3.80;;;25.60;1.00;;;;;;19744279;29;20050;-84
2023/07/08 21:19:42;;;;;;;8.35;4.45;;;25.30;1.00;;;;;;19733074;29;20419;-85
2023/07/08 21:29:43;;;;;;;6.70;4.55;;;25.10;1.00;;;;;;19756556;29;20047;-84
2023/07/08 21:39:45;;;;;;;6.93;4.57;;;25.00;1.00;;;;;;19748596;29;20047;-82
2023/07/08 21:49:46;;;;;;;7.32;4.65;;;25.00;1.00;;;;;;19748752;29;20051;-84
2023/07/08 21:59:47;;;;;;;6.57;4.28;;;24.90;1.00;;;;;;19740059;29;20633;-84
2023/07/08 22:09:49;;;;;;;7.00;3.83;;;24.80;1.00;;;;;;19754545;29;20496;-77
2023/07/08 22:19:50;;;;;;;8.15;3.88;;;24.70;1.00;;;;;;19745444;29;20047;-77
2023/07/08 22:29:51;;;;;;;9.00;3.60;;;24.70;1.00;;;;;;19750934;29;20050;-79
2023/07/08 22:39:52;;;;;;;6.63;3.63;;;24.90;1.00;;;;;;19760998;29;20054;-78
2023/07/08 22:49:53;;;;;;;5.63;3.80;;;25.20;1.00;;;;;;19741159;29;20044;-77
2023/07/08 22:59:54;;;;;;;5.53;3.97;;;25.00;1.00;;;;;;19746034;29;21422;-78
2023/07/08 23:09:55;;;;;;;7.55;3.78;;;24.70;1.00;;;;;;19728928;29;20737;-77
2023/07/08 23:19:56;;;;;;;6.13;4.20;;;24.40;1.00;;;;;;19745633;29;20055;-84
2023/07/08 23:29:57;;;;;;;6.95;3.63;;;24.10;1.00;;;;;;19745111;29;20044;-84
2023/07/08 23:39:58;;;;;;;5.53;4.10;;;23.80;1.00;;;;;;19733670;29;20058;-83
2023/07/08 23:50:00;;;;;;;8.65;4.60;;;23.60;1.00;;;;;;19740834;29;20664;-83
